sensor_id;sensor_type;location;lat;lon;timestamp;pressure;altitude;pressure_sealevel;temperature;humidity
22582;BME280;47125;48.542;9.052;2023-02-13T00:05:53;97832.16;;;4.61;77.10
22582;BME280;47125;48.542;9.052;2023-02-13T00:15:57;97833.44;;;4.57;77.30
22582;BME280;47125;48.542;9.052;2023-02-13T00:26:00;97834.47;;;4.38;77.22
22582;BME280;47125;48.542;9.052;2023-02-13T00:36:08;97837.34;;;4.44;77.07
22582;BME280;47125;48.542;9.052;2023-02-13T00:46:11;97838.03;;;4.29;76.78
22582;BME280;47125;48.542;9.052;2023-02-13T00:56:15;97831.97;;;4.19;76.83
22582;BME280;47125;48.542;9.052;2023-02-13T01:06:17;97830.47;;;4.16;76.31
22582;BME280;47125;48.542;9.052;2023-02-13T01:16:21;97832.91;;;3.92;77.80
22582;BME280;47125;48.542;9.052;2023-02-13T01:26:23;97825.03;;;4.00;77.42
22582;BME280;47125;48.542;9.052;2023-02-13T01:36:27;97817.94;;;4.01;77.16
22582;BME280;47125;48.542;9.052;2023-02-13T01:46:30;97808.50;;;3.98;76.69
22582;BME280;47125;48.542;9.052;2023-02-13T01:56:35;97801.53;;;3.79;77.46
22582;BME280;47125;48.542;9.052;2023-02-13T02:06:39;97805.94;;;3.88;76.99
22582;BME280;47125;48.542;9.052;2023-02-13T02:16:44;97796.41;;;3.60;78.03
22582;BME280;47125;48.542;9.052;2023-02-13T02:26:54;97806.53;;;3.65;78.07
22582;BME280;47125;48.542;9.052;2023-02-13T02:37:05;97806.41;;;3.66;79.13
22582;BME280;47125;48.542;9.052;2023-02-13T02:47:17;97808.94;;;3.58;77.39
22582;BME280;47125;48.542;9.052;2023-02-13T02:57:41;97821.72;;;3.36;77.80
22582;BME280;47125;48.542;9.052;2023-02-13T03:08:04;97814.84;;;3.43;76.98
22582;BME280;47125;48.542;9.052;2023-02-13T03:18:09;97818.19;;;3.45;78.00
22582;BME280;47125;48.542;9.052;2023-02-13T03:28:31;97829.59;;;3.45;77.91
22582;BME280;47125;48.542;9.052;2023-02-13T03:38:54;97824.06;;;3.39;79.58
22582;BME280;47125;48.542;9.052;2023-02-13T03:48:58;97828.19;;;3.51;78.49
22582;BME280;47125;48.542;9.052;2023-02-13T03:59:23;97838.34;;;2.82;77.90
22582;BME280;47125;48.542;9.052;2023-02-13T04:09:28;97840.44;;;2.78;75.54
22582;BME280;47125;48.542;9.052;2023-02-13T04:19:33;97845.59;;;2.70;75.51
22582;BME280;47125;48.542;9.052;2023-02-13T04:29:36;97855.31;;;2.69;77.29
22582;BME280;47125;48.542;9.052;2023-02-13T04:39:40;97854.09;;;2.64;76.97
22582;BME280;47125;48.542;9.052;2023-02-13T04:49:42;97846.56;;;2.69;77.61
22582;BME280;47125;48.542;9.052;2023-02-13T04:59:46;97856.28;;;2.68;79.11
22582;BME280;47125;48.542;9.052;2023-02-13T05:09:48;97859.78;;;2.59;78.55
22582;BME280;47125;48.542;9.052;2023-02-13T05:19:52;97868.53;;;2.60;78.15
22582;BME280;47125;48.542;9.052;2023-02-13T05:29:55;97861.19;;;2.54;78.51
22582;BME280;47125;48.542;9.052;2023-02-13T05:39:59;97859.94;;;2.58;78.42
22582;BME280;47125;48.542;9.052;2023-02-13T05:50:01;97871.03;;;2.33;78.08
22582;BME280;47125;48.542;9.052;2023-02-13T06:00:06;97855.94;;;2.25;77.22
22582;BME280;47125;48.542;9.052;2023-02-13T06:10:08;97865.91;;;2.12;77.46
22582;BME280;47125;48.542;9.052;2023-02-13T06:20:12;97872.44;;;2.08;78.66
22582;BME280;47125;48.542;9.052;2023-02-13T06:30:15;97871.63;;;1.98;78.75
22582;BME280;47125;48.542;9.052;2023-02-13T06:40:19;97872.56;;;1.97;78.90
22582;BME280;47125;48.542;9.052;2023-02-13T06:50:22;97882.00;;;1.80;79.03
22582;BME280;47125;48.542;9.052;2023-02-13T07:00:27;97892.34;;;1.72;79.64
22582;BME280;47125;48.542;9.052;2023-02-13T07:10:29;97907.91;;;1.85;78.98
22582;BME280;47125;48.542;9.052;2023-02-13T07:20:33;97903.06;;;1.99;78.78
22582;BME280;47125;48.542;9.052;2023-02-13T07:30:35;97906.94;;;1.95;78.82
22582;BME280;47125;48.542;9.052;2023-02-13T07:40:40;97915.69;;;2.05;78.90
22582;BME280;47125;48.542;9.052;2023-02-13T07:50:42;97917.25;;;2.17;78.91
22582;BME280;47125;48.542;9.052;2023-02-13T08:00:46;97916.97;;;2.20;78.86
22582;BME280;47125;48.542;9.052;2023-02-13T08:10:48;97918.22;;;2.36;78.97
22582;BME280;47125;48.542;9.052;2023-02-13T08:21:09;97923.09;;;2.31;79.03
22582;BME280;47125;48.542;9.052;2023-02-13T08:31:12;97926.81;;;2.38;78.98
22582;BME280;47125;48.542;9.052;2023-02-13T08:41:16;97915.84;;;2.13;80.30
22582;BME280;47125;48.542;9.052;2023-02-13T08:51:19;97919.47;;;2.32;80.10
22582;BME280;47125;48.542;9.052;2023-02-13T09:01:23;97910.31;;;2.36;80.21
22582;BME280;47125;48.542;9.052;2023-02-13T09:11:26;97903.09;;;2.66;79.71
22582;BME280;47125;48.542;9.052;2023-02-13T09:21:30;97903.84;;;2.96;78.38
22582;BME280;47125;48.542;9.052;2023-02-13T09:31:32;97898.38;;;3.07;77.50
22582;BME280;47125;48.542;9.052;2023-02-13T09:41:37;97898.94;;;3.10;78.57
22582;BME280;47125;48.542;9.052;2023-02-13T09:51:41;97895.25;;;3.30;77.42
22582;BME280;47125;48.542;9.052;2023-02-13T10:01:46;97905.44;;;3.80;77.18
22582;BME280;47125;48.542;9.052;2023-02-13T10:22:11;97917.97;;;4.40;76.36
22582;BME280;47125;48.542;9.052;2023-02-13T10:32:16;97906.63;;;5.17;75.13
22582;BME280;47125;48.542;9.052;2023-02-13T10:42:22;97913.50;;;5.95;72.83
22582;BME280;47125;48.542;9.052;2023-02-13T10:52:32;97903.50;;;6.63;71.55
22582;BME280;47125;48.542;9.052;2023-02-13T11:02:38;97894.38;;;6.74;69.19
22582;BME280;47125;48.542;9.052;2023-02-13T11:12:41;97881.78;;;7.47;67.56
22582;BME280;47125;48.542;9.052;2023-02-13T11:22:45;97885.25;;;7.95;66.12
22582;BME280;47125;48.542;9.052;2023-02-13T11:32:55;97887.81;;;8.11;64.03
22582;BME280;47125;48.542;9.052;2023-02-13T11:43:02;97862.59;;;9.41;60.38
22582;BME280;47125;48.542;9.052;2023-02-13T11:53:08;97861.66;;;10.50;57.59
22582;BME280;47125;48.542;9.052;2023-02-13T12:03:27;97854.19;;;10.88;55.21
22582;BME280;47125;48.542;9.052;2023-02-13T12:13:32;97860.16;;;11.18;55.70
22582;BME280;47125;48.542;9.052;2023-02-13T12:23:40;97856.31;;;11.61;52.68
22582;BME280;47125;48.542;9.052;2023-02-13T12:44:27;97839.34;;;13.47;49.01
22582;BME280;47125;48.542;9.052;2023-02-13T12:54:38;97837.16;;;14.71;46.08
22582;BME280;47125;48.542;9.052;2023-02-13T13:04:49;97827.97;;;15.28;45.36
22582;BME280;47125;48.542;9.052;2023-02-13T13:14:57;97823.50;;;15.83;43.88
22582;BME280;47125;48.542;9.052;2023-02-13T13:25:07;97811.91;;;16.72;41.65
22582;BME280;47125;48.542;9.052;2023-02-13T13:35:12;97810.00;;;16.01;43.03
22582;BME280;47125;48.542;9.052;2023-02-13T13:45:22;97801.94;;;14.72;44.84
22582;BME280;47125;48.542;9.052;2023-02-13T14:05:59;97806.22;;;13.73;46.67
22582;BME280;47125;48.542;9.052;2023-02-13T14:16:03;97799.94;;;13.41;48.72
22582;BME280;47125;48.542;9.052;2023-02-13T14:26:11;97811.94;;;13.39;47.91
22582;BME280;47125;48.542;9.052;2023-02-13T14:36:19;97800.78;;;13.42;47.92
22582;BME280;47125;48.542;9.052;2023-02-13T14:46:25;97800.78;;;13.22;49.00
22582;BME280;47125;48.542;9.052;2023-02-13T14:56:31;97789.84;;;13.04;49.28
22582;BME280;47125;48.542;9.052;2023-02-13T15:06:37;97785.34;;;12.65;49.96
22582;BME280;47125;48.542;9.052;2023-02-13T15:16:40;97786.84;;;11.81;51.90
22582;BME280;47125;48.542;9.052;2023-02-13T15:26:48;97780.25;;;11.36;53.26
22582;BME280;47125;48.542;9.052;2023-02-13T15:36:51;97788.66;;;10.22;55.58
22582;BME280;47125;48.542;9.052;2023-02-13T15:46:56;97769.63;;;10.31;55.53
22582;BME280;47125;48.542;9.052;2023-02-13T15:57:03;97771.97;;;9.98;56.96
22582;BME280;47125;48.542;9.052;2023-02-13T16:07:08;97768.75;;;9.88;60.67
22582;BME280;47125;48.542;9.052;2023-02-13T16:17:14;97770.66;;;10.09;57.36
22582;BME280;47125;48.542;9.052;2023-02-13T16:27:19;97771.59;;;9.15;59.69
22582;BME280;47125;48.542;9.052;2023-02-13T16:37:27;97773.69;;;8.76;60.89
22582;BME280;47125;48.542;9.052;2023-02-13T16:47:31;97769.06;;;8.32;62.33
22582;BME280;47125;48.542;9.052;2023-02-13T16:57:34;97775.25;;;8.02;63.02
22582;BME280;47125;48.542;9.052;2023-02-13T17:07:38;97773.84;;;7.69;63.96
22582;BME280;47125;48.542;9.052;2023-02-13T17:17:41;97795.75;;;7.40;64.69
22582;BME280;47125;48.542;9.052;2023-02-13T17:27:45;97798.53;;;7.08;65.64
22582;BME280;47125;48.542;9.052;2023-02-13T17:37:48;97799.94;;;6.72;66.69
22582;BME280;47125;48.542;9.052;2023-02-13T17:58:20;97804.31;;;6.24;67.72
22582;BME280;47125;48.542;9.052;2023-02-13T18:08:23;97815.72;;;6.08;68.69
22582;BME280;47125;48.542;9.052;2023-02-13T18:18:26;97815.38;;;5.87;68.64
22582;BME280;47125;48.542;9.052;2023-02-13T18:28:29;97816.97;;;5.72;69.01
22582;BME280;47125;48.542;9.052;2023-02-13T18:38:33;97811.78;;;5.63;68.87
22582;BME280;47125;48.542;9.052;2023-02-13T18:48:35;97828.75;;;5.36;70.22
22582;BME280;47125;48.542;9.052;2023-02-13T18:58:39;97833.00;;;5.21;70.82
22582;BME280;47125;48.542;9.052;2023-02-13T19:08:42;97840.91;;;5.13;70.81
22582;BME280;47125;48.542;9.052;2023-02-13T19:18:48;97829.75;;;5.01;70.63
22582;BME280;47125;48.542;9.052;2023-02-13T19:28:52;97838.44;;;4.85;70.83
22582;BME280;47125;48.542;9.052;2023-02-13T19:38:56;97826.53;;;4.64;71.63
22582;BME280;47125;48.542;9.052;2023-02-13T19:48:59;97816.59;;;4.58;71.33
22582;BME280;47125;48.542;9.052;2023-02-13T19:59:05;97819.59;;;4.63;70.81
22582;BME280;47125;48.542;9.052;2023-02-13T20:09:09;97821.34;;;4.54;70.71
22582;BME280;47125;48.542;9.052;2023-02-13T20:19:14;97825.38;;;4.40;71.49
22582;BME280;47125;48.542;9.052;2023-02-13T20:29:18;97813.34;;;4.46;70.28
22582;BME280;47125;48.542;9.052;2023-02-13T20:39:23;97804.50;;;4.29;71.15
22582;BME280;47125;48.542;9.052;2023-02-13T20:49:25;97815.16;;;4.20;70.64
22582;BME280;47125;48.542;9.052;2023-02-13T20:59:29;97814.75;;;4.15;70.90
22582;BME280;47125;48.542;9.052;2023-02-13T21:09:32;97812.94;;;4.15;71.45
22582;BME280;47125;48.542;9.052;2023-02-13T21:19:36;97803.06;;;4.00;72.10
22582;BME280;47125;48.542;9.052;2023-02-13T21:29:41;97795.28;;;3.80;71.58
22582;BME280;47125;48.542;9.052;2023-02-13T21:39:45;97790.53;;;3.84;71.08
22582;BME280;47125;48.542;9.052;2023-02-13T21:49:47;97781.38;;;3.61;72.48
22582;BME280;47125;48.542;9.052;2023-02-13T21:59:51;97776.84;;;3.53;73.11
22582;BME280;47125;48.542;9.052;2023-02-13T22:09:53;97791.13;;;3.60;73.08
22582;BME280;47125;48.542;9.052;2023-02-13T22:19:57;97787.41;;;3.53;72.26
22582;BME280;47125;48.542;9.052;2023-02-13T22:30:00;97780.69;;;3.41;72.17
22582;BME280;47125;48.542;9.052;2023-02-13T22:40:04;97790.88;;;3.36;73.24
22582;BME280;47125;48.542;9.052;2023-02-13T22:50:07;97793.56;;;3.26;73.60
22582;BME280;47125;48.542;9.052;2023-02-13T23:00:12;97789.00;;;3.19;73.29
22582;BME280;47125;48.542;9.052;2023-02-13T23:10:14;97789.31;;;3.16;74.30
22582;BME280;47125;48.542;9.052;2023-02-13T23:20:18;97787.78;;;3.13;74.98
22582;BME280;47125;48.542;9.052;2023-02-13T23:30:21;97782.50;;;3.13;74.29
22582;BME280;47125;48.542;9.052;2023-02-13T23:40:25;97778.66;;;3.08;74.99
22582;BME280;47125;48.542;9.052;2023-02-13T23:50:28;97768.94;;;3.08;75.14
